createdAt,value
2023-01-31T00:04:45.299Z,7.63
2023-01-31T00:09:47.036Z,7.97
2023-01-31T00:14:48.681Z,8.70
2023-01-31T00:19:50.358Z,6.17
2023-01-31T00:24:52.028Z,5.77
2023-01-31T00:29:53.774Z,5.93
2023-01-31T00:34:55.490Z,5.17
2023-01-31T00:39:57.160Z,5.50
2023-01-31T00:44:58.826Z,5.47
2023-01-31T00:50:00.682Z,7.23
2023-01-31T00:55:02.390Z,6.97
2023-01-31T01:00:04.853Z,7.43
2023-01-31T01:05:07.044Z,6.27
2023-01-31T01:10:09.517Z,5.83
2023-01-31T01:15:11.270Z,5.23
2023-01-31T01:20:13.082Z,4.43
2023-01-31T01:25:14.805Z,4.57
2023-01-31T01:30:16.937Z,3.93
2023-01-31T01:35:18.894Z,5.63
2023-01-31T01:40:20.921Z,4.40
2023-01-31T01:45:23.083Z,3.43
2023-01-31T01:50:33.644Z,3.93
2023-01-31T01:55:50.013Z,4.00
2023-01-31T02:00:52.370Z,3.73
2023-01-31T02:06:00.375Z,3.30
2023-01-31T02:11:10.896Z,3.70
2023-01-31T02:16:12.731Z,3.30
2023-01-31T02:21:33.569Z,3.23
2023-01-31T02:27:12.908Z,3.60
2023-01-31T02:32:23.837Z,3.70
2023-01-31T02:37:43.308Z,3.70
2023-01-31T02:42:44.940Z,3.83
2023-01-31T02:48:07.977Z,3.63
2023-01-31T02:53:41.215Z,3.50
2023-01-31T02:58:56.519Z,4.13
2023-01-31T03:04:02.097Z,3.40
2023-01-31T03:09:13.721Z,3.57
2023-01-31T03:14:24.803Z,3.77
2023-01-31T03:19:38.484Z,3.10
2023-01-31T03:24:42.048Z,3.33
2023-01-31T03:29:44.712Z,3.27
2023-01-31T03:34:47.452Z,3.00
2023-01-31T03:40:03.836Z,3.30
2023-01-31T03:45:25.750Z,3.30
2023-01-31T03:50:41.235Z,3.70
2023-01-31T03:55:45.722Z,3.20
2023-01-31T04:00:50.292Z,3.17
2023-01-31T04:05:58.630Z,3.00
2023-01-31T04:11:03.643Z,2.90
2023-01-31T04:16:05.713Z,2.83
2023-01-31T04:21:07.482Z,3.40
2023-01-31T04:26:09.169Z,3.00
2023-01-31T04:31:10.928Z,3.33
2023-01-31T04:36:12.756Z,2.80
2023-01-31T04:41:14.428Z,3.23
2023-01-31T04:46:16.138Z,3.73
2023-01-31T04:51:17.885Z,15.97
2023-01-31T04:56:19.591Z,9.53
2023-01-31T05:01:21.377Z,4.27
2023-01-31T05:06:23.114Z,3.90
2023-01-31T05:11:24.851Z,4.40
2023-01-31T05:16:26.669Z,3.30
2023-01-31T05:21:28.501Z,3.77
2023-01-31T05:26:30.216Z,3.60
2023-01-31T05:31:32.550Z,5.83
2023-01-31T05:36:34.246Z,3.40
2023-01-31T05:41:36.133Z,4.37
2023-01-31T05:46:38.538Z,6.67
2023-01-31T05:51:41.142Z,9.40
2023-01-31T05:56:42.881Z,6.97
2023-01-31T06:01:44.750Z,5.93
2023-01-31T06:06:46.466Z,5.00
2023-01-31T06:11:48.102Z,12.30
2023-01-31T06:16:50.081Z,17.37
2023-01-31T06:21:52.223Z,17.77
2023-01-31T06:26:53.875Z,13.27
2023-01-31T06:31:55.553Z,13.27
2023-01-31T06:36:59.010Z,13.00
2023-01-31T06:42:00.722Z,13.73
2023-01-31T06:47:02.404Z,8.33
2023-01-31T06:52:04.177Z,12.63
2023-01-31T06:57:06.259Z,15.53
2023-01-31T07:02:10.281Z,12.87
2023-01-31T07:07:11.992Z,24.57
2023-01-31T07:12:13.698Z,15.73
2023-01-31T07:17:15.571Z,11.20
2023-01-31T07:22:17.250Z,9.67
2023-01-31T07:27:18.989Z,8.67
2023-01-31T07:32:20.685Z,8.00
2023-01-31T07:37:22.357Z,8.47
2023-01-31T07:42:24.040Z,9.07
2023-01-31T07:47:25.688Z,10.50
2023-01-31T07:52:27.332Z,8.87
2023-01-31T07:57:32.153Z,9.17
2023-01-31T08:02:52.546Z,8.20
2023-01-31T08:08:10.325Z,14.10
2023-01-31T08:13:12.091Z,9.77
2023-01-31T08:18:13.788Z,10.67
2023-01-31T08:23:15.479Z,10.03
2023-01-31T08:28:17.176Z,9.73
2023-01-31T08:33:18.967Z,8.73
2023-01-31T08:38:21.287Z,9.27
2023-01-31T08:43:22.962Z,6.80
2023-01-31T08:48:24.667Z,6.73
2023-01-31T08:53:26.312Z,6.17
2023-01-31T08:58:28.986Z,6.07
2023-01-31T09:03:31.063Z,6.80
2023-01-31T09:08:33.251Z,5.87
2023-01-31T09:13:35.798Z,6.83
2023-01-31T09:18:39.607Z,6.37
2023-01-31T09:23:42.837Z,7.97
2023-01-31T09:28:45.458Z,8.33
2023-01-31T09:33:47.460Z,6.83
2023-01-31T09:38:53.340Z,7.40
2023-01-31T09:44:20.477Z,6.67
2023-01-31T09:49:33.158Z,7.00
2023-01-31T09:54:39.566Z,7.23
2023-01-31T10:00:02.592Z,7.90
2023-01-31T10:05:13.408Z,7.70
2023-01-31T10:10:33.765Z,7.10
2023-01-31T10:15:42.848Z,4.23
2023-01-31T10:21:08.972Z,4.10
2023-01-31T10:26:16.250Z,3.10
2023-01-31T10:31:53.168Z,3.47
2023-01-31T10:37:31.562Z,4.03
2023-01-31T10:42:39.256Z,4.13
2023-01-31T10:47:59.632Z,4.27
2023-01-31T10:53:16.438Z,4.37
2023-01-31T10:58:25.040Z,5.03
2023-01-31T11:03:26.701Z,4.20
2023-01-31T11:08:36.525Z,3.80
2023-01-31T11:13:38.881Z,3.80
2023-01-31T11:18:49.415Z,3.90
2023-01-31T11:23:55.458Z,3.80
2023-01-31T11:28:58.019Z,4.00
2023-01-31T11:34:01.905Z,3.27
2023-01-31T11:39:24.151Z,4.93
2023-01-31T11:44:25.914Z,4.30
2023-01-31T11:49:35.396Z,4.00
2023-01-31T11:54:37.382Z,5.03
2023-01-31T11:59:39.093Z,5.40
2023-01-31T12:04:42.730Z,4.87
2023-01-31T12:09:44.899Z,5.57
2023-01-31T12:14:48.202Z,5.20
2023-01-31T12:19:49.851Z,4.50
2023-01-31T12:25:38.955Z,4.93
2023-01-31T12:31:08.417Z,6.10
2023-01-31T12:36:29.054Z,5.70
2023-01-31T12:41:30.715Z,5.77
2023-01-31T12:46:41.661Z,5.90
2023-01-31T12:51:50.622Z,5.53
2023-01-31T12:57:26.318Z,5.83
2023-01-31T13:02:46.202Z,5.40
2023-01-31T13:08:07.875Z,5.57
2023-01-31T13:13:32.018Z,5.20
2023-01-31T13:18:35.835Z,6.17
2023-01-31T13:23:48.527Z,5.10
2023-01-31T13:28:57.979Z,5.07
2023-01-31T13:34:06.502Z,5.03
2023-01-31T13:39:32.303Z,5.17
2023-01-31T13:44:34.068Z,5.67
2023-01-31T13:49:41.350Z,4.13
2023-01-31T13:54:53.291Z,5.47
2023-01-31T14:00:01.894Z,4.83
2023-01-31T14:05:45.712Z,6.33
2023-01-31T14:10:51.892Z,5.53
2023-01-31T14:15:55.869Z,5.37
2023-01-31T14:20:57.557Z,5.30
2023-01-31T14:25:59.286Z,4.93
2023-01-31T14:31:12.672Z,4.57
2023-01-31T14:36:26.386Z,5.13
2023-01-31T14:41:39.291Z,5.40
2023-01-31T14:47:25.805Z,5.13
2023-01-31T14:52:28.490Z,5.00
2023-01-31T14:57:42.627Z,4.67
2023-01-31T15:03:07.330Z,5.40
2023-01-31T15:08:14.642Z,5.37
2023-01-31T15:13:38.293Z,5.80
2023-01-31T15:18:40.824Z,5.70
2023-01-31T15:23:43.183Z,5.87
2023-01-31T15:28:45.915Z,5.27
2023-01-31T15:33:53.354Z,5.20
2023-01-31T15:39:16.589Z,6.10
2023-01-31T15:44:23.696Z,5.40
2023-01-31T15:49:39.492Z,5.77
2023-01-31T15:54:56.075Z,5.20
2023-01-31T15:59:58.240Z,6.13
2023-01-31T16:05:00.344Z,5.40
2023-01-31T16:10:02.566Z,5.93
2023-01-31T16:15:07.798Z,5.83
2023-01-31T16:20:52.658Z,5.33
2023-01-31T16:26:23.109Z,4.97
2023-01-31T16:31:27.862Z,5.23
2023-01-31T16:36:33.675Z,6.07
2023-01-31T16:41:46.310Z,6.10
2023-01-31T16:46:50.065Z,6.40
2023-01-31T16:52:08.828Z,7.97
2023-01-31T16:57:37.528Z,5.57
2023-01-31T17:02:41.266Z,6.03
2023-01-31T17:07:45.589Z,6.00
2023-01-31T17:12:47.777Z,6.80
2023-01-31T17:17:49.429Z,6.83
2023-01-31T17:23:00.698Z,6.77
2023-01-31T17:28:05.844Z,6.77
2023-01-31T17:33:11.882Z,7.17
2023-01-31T17:38:13.587Z,7.30
2023-01-31T17:43:22.052Z,7.67
2023-01-31T17:48:26.819Z,7.90
2023-01-31T17:53:32.135Z,7.93
2023-01-31T17:58:36.381Z,7.83
2023-01-31T18:03:38.037Z,8.13
2023-01-31T18:08:39.782Z,10.23
2023-01-31T18:13:42.253Z,9.20
2023-01-31T18:18:44.043Z,8.33
2023-01-31T18:23:54.055Z,8.87
2023-01-31T18:28:57.494Z,8.83
2023-01-31T18:33:59.323Z,10.20
2023-01-31T18:39:01.056Z,9.30
2023-01-31T18:44:02.885Z,9.83
2023-01-31T18:49:04.595Z,9.23
2023-01-31T18:54:07.814Z,7.40
2023-01-31T18:59:09.479Z,8.60
2023-01-31T19:04:11.144Z,8.70
2023-01-31T19:09:13.788Z,7.63
2023-01-31T19:14:16.001Z,8.17
2023-01-31T19:19:17.755Z,7.70
2023-01-31T19:24:19.564Z,8.00
2023-01-31T19:29:21.287Z,7.67
2023-01-31T19:34:23.020Z,6.47
2023-01-31T19:39:24.669Z,6.23
2023-01-31T19:44:26.527Z,6.13
2023-01-31T19:49:28.196Z,5.43
2023-01-31T19:54:29.953Z,5.30
2023-01-31T19:59:33.678Z,8.13
2023-01-31T20:04:35.349Z,6.00
2023-01-31T20:09:37.101Z,6.00
2023-01-31T20:14:38.762Z,5.93
2023-01-31T20:19:41.028Z,5.50
2023-01-31T20:24:42.666Z,5.10
2023-01-31T20:29:44.388Z,6.47
2023-01-31T20:34:46.168Z,6.47
2023-01-31T20:39:47.844Z,6.07
2023-01-31T20:44:49.737Z,5.40
2023-01-31T20:49:51.411Z,5.33
2023-01-31T20:54:53.134Z,6.33
2023-01-31T20:59:54.844Z,5.73
2023-01-31T21:04:56.518Z,5.57
2023-01-31T21:09:58.235Z,6.43
2023-01-31T21:15:00.030Z,5.43
2023-01-31T21:20:01.885Z,5.87
2023-01-31T21:25:03.829Z,5.77
2023-01-31T21:30:06.270Z,7.07
2023-01-31T21:35:08.248Z,7.87
2023-01-31T21:40:10.577Z,9.37
2023-01-31T21:45:12.308Z,8.93
2023-01-31T21:50:14.012Z,8.37
2023-01-31T21:55:16.820Z,9.03
2023-01-31T22:00:19.592Z,7.87
2023-01-31T22:05:21.446Z,8.43
2023-01-31T22:10:23.358Z,7.57
2023-01-31T22:15:25.514Z,7.70
2023-01-31T22:20:27.213Z,7.90
2023-01-31T22:25:28.885Z,7.73
2023-01-31T22:30:30.783Z,7.53
2023-01-31T22:35:33.713Z,7.33
2023-01-31T22:40:39.937Z,8.03
2023-01-31T22:45:49.310Z,7.10
2023-01-31T22:50:59.155Z,7.28
2023-01-31T22:56:02.580Z,6.80
2023-01-31T23:01:12.671Z,7.37
2023-01-31T23:06:15.952Z,6.53
2023-01-31T23:11:18.346Z,6.67
2023-01-31T23:16:46.313Z,7.27
2023-01-31T23:21:49.061Z,7.70
2023-01-31T23:26:51.023Z,7.57
2023-01-31T23:31:52.810Z,7.03
2023-01-31T23:36:54.502Z,7.03
2023-01-31T23:41:56.230Z,6.83
2023-01-31T23:46:57.917Z,6.30
2023-01-31T23:51:59.685Z,6.43
2023-01-31T23:57:01.469Z,7.00
